Time;durP1;ratioP1;P1;durP2;ratioP2;P2;SDS_P1;SDS_P2;PMS_P1;PMS_P2;Temp;Humidity;BMP_temperature;BMP_pressure;BME280_temperature;BME280_humidity;BME280_pressure;Samples;Min_cycle;Max_cycle;Signal;HPM_P1;HPM_P2
2021/01/06 07:32:22;;;;;;;6.60;3.45;;;1.10;99.90;;;;;;4959394;23;20063;-95
2021/01/06 07:34:54;;;;;;;7.38;3.78;;;1.20;99.90;;;;;;4901555;29;20036;-95
2021/01/06 07:37:30;;;;;;;13.95;4.07;;;1.20;99.90;;;;;;4901131;29;20174;-95
2021/01/06 07:40:03;;;;;;;10.02;4.55;;;1.20;99.90;;;;;;4921796;29;20044;-95
2021/01/06 07:42:44;;;;;;;5.85;3.47;;;1.20;99.90;;;;;;4904048;29;20032;-94
2021/01/06 07:45:30;;;;;;;6.70;3.80;;;1.20;99.90;;;;;;4902755;29;20036;-95
2021/01/06 07:48:24;;;;;;;7.35;3.00;;;1.20;99.90;;;;;;4908600;29;20036;-95
2021/01/06 07:51:18;;;;;;;13.10;3.78;;;1.20;99.90;;;;;;4907750;29;20047;-94
2021/01/06 07:54:09;;;;;;;12.65;5.05;;;1.20;99.90;;;;;;4872775;29;20063;-96
2021/01/06 07:56:50;;;;;;;10.48;4.32;;;1.30;99.90;;;;;;4911889;29;20040;-96
2021/01/06 07:59:27;;;;;;;8.32;4.00;;;1.30;99.90;;;;;;4924573;29;20561;-95
2021/01/06 08:02:05;;;;;;;8.35;4.57;;;1.30;99.90;;;;;;4930613;29;20035;-96
2021/01/06 08:04:57;;;;;;;9.52;4.18;;;1.30;99.90;;;;;;4906600;29;20036;-95
2021/01/06 08:07:26;;;;;;;7.50;4.45;;;1.30;99.90;;;;;;4895581;29;20498;-95
2021/01/06 10:21:01;;;;;;;7.57;4.05;;;2.10;99.90;;;;;;5211450;23;20119;-94
2021/01/06 10:23:55;;;;;;;8.77;4.80;;;2.10;99.90;;;;;;4962348;28;20094;-94
2021/01/06 10:26:36;;;;;;;11.00;5.30;;;2.10;99.90;;;;;;4951475;29;20027;-92
2021/01/06 10:29:19;;;;;;;12.63;4.53;;;2.10;99.90;;;;;;4964438;29;20015;-96
2021/01/06 10:32:33;;;;;;;12.45;4.60;;;2.10;99.90;;;;;;4948977;29;20082;-96
2021/01/06 10:35:15;;;;;;;8.15;4.25;;;2.10;99.90;;;;;;4887184;29;20040;-94
2021/01/06 10:41:11;;;;;;;9.85;4.13;;;2.10;99.90;;;;;;4905954;29;20032;-94
2021/01/06 10:43:43;;;;;;;10.70;3.80;;;2.10;99.90;;;;;;4899202;29;20076;-92
2021/01/06 10:46:47;;;;;;;7.95;4.00;;;2.10;99.90;;;;;;4875044;29;20033;-95
2021/01/06 10:49:18;;;;;;;8.40;4.10;;;2.20;99.90;;;;;;4897242;29;20108;-93
2021/01/06 11:09:20;;;;;;;11.00;3.72;;;2.30;99.90;;;;;;4971758;23;20305;-95
2021/01/06 11:11:59;;;;;;;9.13;3.70;;;2.30;99.90;;;;;;4944323;29;20094;-95
2021/01/06 11:14:30;;;;;;;11.30;3.70;;;2.30;99.90;;;;;;4942771;29;20123;-96
2021/01/06 11:17:15;;;;;;;10.63;4.55;;;2.40;99.90;;;;;;4958736;28;20039;-92
2021/01/06 11:19:40;;;;;;;9.23;4.50;;;2.40;99.90;;;;;;4943067;29;20034;-95
2021/01/06 11:22:39;;;;;;;9.80;4.20;;;2.50;99.90;;;;;;4944572;29;20038;-96
2021/01/06 11:25:48;;;;;;;12.25;4.43;;;2.80;99.90;;;;;;4955639;29;20018;-96
2021/01/06 11:29:14;;;;;;;8.77;3.40;;;3.30;99.90;;;;;;4962502;29;20023;-96
2021/01/06 11:32:05;;;;;;;7.38;3.35;;;4.10;99.90;;;;;;4973925;29;20031;-96
2021/01/06 11:34:48;;;;;;;;;;;;;;;;;;;;;
2021/01/06 11:40:30;;;;;;;7.47;3.60;;;5.90;99.90;;;;;;4957185;29;20042;-95
2021/01/06 11:43:29;;;;;;;9.57;3.13;;;6.00;99.90;;;;;;4951794;29;20054;-94
2021/01/06 11:46:33;;;;;;;6.83;2.97;;;6.40;99.90;;;;;;4978471;28;20030;-96
2021/01/06 11:49:26;;;;;;;10.40;2.97;;;6.70;99.90;;;;;;4961991;28;20019;-95
2021/01/06 11:52:40;;;;;;;4.97;3.05;;;7.20;99.90;;;;;;4962288;28;20039;-96
2021/01/06 11:55:45;;;;;;;4.85;2.38;;;7.60;99.90;;;;;;4962695;28;20026;-93
2021/01/06 12:12:46;;;;;;;8.43;2.90;;;9.10;98.80;;;;;;5162455;23;19991;-96
2021/01/06 12:15:48;;;;;;;6.13;2.45;;;9.20;98.70;;;;;;4943693;29;20023;-94
2021/01/06 12:19:00;;;;;;;8.25;2.90;;;9.30;98.70;;;;;;4939892;29;20028;-96
2021/01/06 12:21:36;;;;;;;7.95;2.35;;;9.60;96.90;;;;;;4944399;28;20040;-93
2021/01/06 12:24:19;;;;;;;5.47;2.47;;;9.90;95.90;;;;;;4941101;29;20091;-96
2021/01/06 12:26:57;;;;;;;5.72;2.83;;;10.00;94.90;;;;;;4935208;29;20035;-96
2021/01/06 12:29:32;;;;;;;11.57;2.95;;;10.20;94.40;;;;;;4934021;29;20489;-95
2021/01/06 12:32:27;;;;;;;13.02;3.25;;;10.20;92.70;;;;;;4914631;29;20035;-95
2021/01/06 12:35:17;;;;;;;13.00;3.15;;;10.30;92.70;;;;;;4927210;29;20087;-96
2021/01/06 12:37:53;;;;;;;4.82;2.50;;;10.50;92.30;;;;;;4949072;28;20039;-95
2021/01/06 12:40:23;;;;;;;8.57;2.30;;;10.70;91.10;;;;;;4928282;29;20027;-95
2021/01/06 12:42:54;;;;;;;7.75;3.20;;;10.50;90.60;;;;;;4933621;29;20024;-95
2021/01/06 12:45:23;;;;;;;5.88;2.85;;;10.40;90.40;;;;;;4953960;29;20034;-96
2021/01/06 12:48:06;;;;;;;8.93;2.53;;;10.40;90.60;;;;;;4952224;29;20075;-95
2021/01/06 12:50:36;;;;;;;6.43;2.58;;;10.40;90.40;;;;;;4957546;29;20045;-96
2021/01/06 12:53:23;;;;;;;5.35;2.60;;;10.40;90.50;;;;;;4953407;29;20027;-96
2021/01/06 12:56:04;;;;;;;4.68;2.75;;;10.30;90.30;;;;;;4944505;29;20058;-96
2021/01/06 12:58:36;;;;;;;5.38;2.78;;;10.40;90.40;;;;;;4931320;29;20062;-95
2021/01/06 13:01:08;;;;;;;6.63;3.33;;;10.70;90.00;;;;;;4942637;29;20028;-95
2021/01/06 13:04:05;;;;;;;7.13;4.00;;;11.10;88.60;;;;;;4942507;29;20043;-95
2021/01/06 13:06:46;;;;;;;6.00;3.42;;;11.40;86.90;;;;;;4933152;29;20151;-96
2021/01/06 13:09:11;;;;;;;8.30;3.17;;;11.80;85.80;;;;;;4934496;29;20561;-93
2021/01/06 13:11:37;;;;;;;7.68;2.60;;;12.10;84.30;;;;;;4956022;28;20042;-94
2021/01/06 13:14:18;;;;;;;8.18;2.30;;;12.10;83.10;;;;;;4951124;28;20027;-92
2021/01/06 13:16:59;;;;;;;5.85;2.50;;;12.00;81.90;;;;;;4945913;29;20028;-95
